createdAt,value
2019-05-06T00:01:21.544Z,5.19
2019-05-06T00:03:48.492Z,5.22
2019-05-06T00:06:15.468Z,5.24
2019-05-06T00:08:43.984Z,5.30
2019-05-06T00:11:11.072Z,5.24
2019-05-06T00:13:38.025Z,5.18
2019-05-06T00:16:05.015Z,5.23
2019-05-06T00:18:34.124Z,5.29
2019-05-06T00:21:04.436Z,5.13
2019-05-06T00:23:39.168Z,5.07
2019-05-06T00:26:24.231Z,5.03
2019-05-06T00:28:57.052Z,5.01
2019-05-06T00:31:24.222Z,4.94
2019-05-06T00:33:51.484Z,4.87
2019-05-06T00:36:18.456Z,4.81
2019-05-06T00:38:48.352Z,4.86
2019-05-06T00:41:20.578Z,4.79
2019-05-06T00:43:47.548Z,4.94
2019-05-06T00:46:14.618Z,4.76
2019-05-06T00:48:41.595Z,4.56
2019-05-06T00:51:08.576Z,4.65
2019-05-06T00:53:37.527Z,4.77
2019-05-06T00:56:04.665Z,4.73
2019-05-06T00:58:31.746Z,4.70
2019-05-06T01:00:58.749Z,4.66
2019-05-06T01:03:25.720Z,4.50
2019-05-06T01:05:54.241Z,4.46
2019-05-06T01:08:23.790Z,4.53
2019-05-06T01:10:50.375Z,4.49
2019-05-06T01:13:26.518Z,4.47
2019-05-06T01:15:54.782Z,4.42
2019-05-06T01:18:21.854Z,4.47
2019-05-06T01:20:50.699Z,4.46
2019-05-06T01:23:17.679Z,4.45
2019-05-06T01:25:44.705Z,4.47
2019-05-06T01:28:13.691Z,4.43
2019-05-06T01:30:40.567Z,4.45
2019-05-06T01:33:07.571Z,4.53
2019-05-06T01:35:35.222Z,4.56
2019-05-06T01:38:21.029Z,4.48
2019-05-06T01:41:13.613Z,4.48
2019-05-06T01:43:40.927Z,4.51
2019-05-06T01:46:07.873Z,4.49
2019-05-06T01:48:47.216Z,4.44
2019-05-06T01:51:14.734Z,4.41
2019-05-06T01:53:41.764Z,4.47
2019-05-06T01:56:08.721Z,4.62
2019-05-06T01:58:35.692Z,4.67
2019-05-06T02:01:04.031Z,4.58
2019-05-06T02:03:31.133Z,4.55
2019-05-06T02:05:58.103Z,4.52
2019-05-06T02:08:25.110Z,4.68
2019-05-06T02:10:54.382Z,4.71
2019-05-06T02:13:20.967Z,4.71
2019-05-06T02:15:47.916Z,4.67
2019-05-06T02:18:16.798Z,4.61
2019-05-06T02:20:44.564Z,4.67
2019-05-06T02:23:15.558Z,4.63
2019-05-06T02:25:46.365Z,4.78
2019-05-06T02:28:14.814Z,4.81
2019-05-06T02:31:07.277Z,4.71
2019-05-06T02:33:55.834Z,4.65
2019-05-06T02:36:45.535Z,4.48
2019-05-06T02:39:14.076Z,4.55
2019-05-06T02:41:43.019Z,4.67
2019-05-06T02:44:13.509Z,4.51
2019-05-06T02:46:43.866Z,4.45
2019-05-06T02:49:35.104Z,4.56
2019-05-06T02:52:03.106Z,4.68
2019-05-06T02:54:34.147Z,4.57
2019-05-06T02:56:59.101Z,4.72
2019-05-06T02:59:26.146Z,4.73
2019-05-06T03:01:54.011Z,4.82
2019-05-06T03:04:23.566Z,4.68
2019-05-06T03:06:52.946Z,4.76
2019-05-06T03:09:18.816Z,4.77
2019-05-06T03:11:45.718Z,4.65
2019-05-06T03:14:13.871Z,4.76
2019-05-06T03:16:43.907Z,4.77
2019-05-06T03:19:13.056Z,4.77
2019-05-06T03:22:03.395Z,4.72
2019-05-06T03:24:39.346Z,4.41
2019-05-06T03:27:06.250Z,4.64
2019-05-06T03:29:33.609Z,4.56
2019-05-06T03:32:06.154Z,4.43
2019-05-06T03:34:52.461Z,4.50
2019-05-06T03:36:58.309Z,4.42
2019-05-06T03:39:25.282Z,4.39
2019-05-06T03:41:53.651Z,4.39
2019-05-06T03:44:23.615Z,4.53
2019-05-06T03:47:08.119Z,4.45
2019-05-06T03:49:37.646Z,4.65
2019-05-06T03:52:04.551Z,4.53
2019-05-06T03:54:34.249Z,4.59
2019-05-06T03:57:03.134Z,4.51
2019-05-06T03:59:33.544Z,4.53
2019-05-06T04:02:00.704Z,4.44
2019-05-06T04:04:27.673Z,4.51
2019-05-06T04:06:55.198Z,4.57
2019-05-06T04:09:24.090Z,4.61
2019-05-06T04:11:54.171Z,4.67
2019-05-06T04:14:23.860Z,4.70
2019-05-06T04:17:15.694Z,4.67
2019-05-06T04:19:46.391Z,4.44
2019-05-06T04:22:23.547Z,4.63
2019-05-06T04:25:14.060Z,4.42
2019-05-06T04:27:46.984Z,4.34
2019-05-06T04:30:13.949Z,4.47
2019-05-06T04:32:43.455Z,4.74
2019-05-06T04:35:09.898Z,4.54
2019-05-06T04:37:36.831Z,4.56
2019-05-06T04:40:04.697Z,4.63
2019-05-06T04:42:34.414Z,4.67
2019-05-06T04:45:04.277Z,4.74
2019-05-06T04:47:32.616Z,4.66
2019-05-06T04:49:58.863Z,4.68
2019-05-06T04:52:26.287Z,4.84
2019-05-06T04:54:53.552Z,4.73
2019-05-06T04:57:23.516Z,4.62
2019-05-06T04:59:49.308Z,4.78
2019-05-06T05:02:16.222Z,4.96
2019-05-06T05:04:43.410Z,4.80
2019-05-06T05:07:12.659Z,4.76
2019-05-06T05:09:39.281Z,4.88
2019-05-06T05:12:22.630Z,4.80
2019-05-06T05:15:05.887Z,4.87
2019-05-06T05:17:37.949Z,5.07
2019-05-06T05:20:05.732Z,5.15
2019-05-06T05:22:32.701Z,5.12
2019-05-06T05:24:59.626Z,5.28
2019-05-06T05:27:26.553Z,5.37
2019-05-06T05:29:53.502Z,5.35
2019-05-06T05:32:22.410Z,5.18
2019-05-06T05:34:49.307Z,5.26
2019-05-06T05:37:16.212Z,5.48
2019-05-06T05:39:43.179Z,5.38
2019-05-06T05:42:22.055Z,5.41
2019-05-06T05:44:49.232Z,5.28
2019-05-06T05:47:16.134Z,5.35
2019-05-06T05:50:05.739Z,5.35
2019-05-06T05:52:32.995Z,5.42
2019-05-06T05:55:02.697Z,5.40
2019-05-06T05:57:31.713Z,5.41
2019-05-06T05:59:58.717Z,5.40
2019-05-06T06:02:25.730Z,5.61
2019-05-06T06:04:57.194Z,5.53
2019-05-06T06:07:22.923Z,5.60
2019-05-06T06:09:57.930Z,5.72
2019-05-06T06:12:24.869Z,5.55
2019-05-06T06:15:12.693Z,5.74
2019-05-06T06:18:05.053Z,5.69
2019-05-06T06:20:53.982Z,5.81
2019-05-06T06:23:27.095Z,5.81
2019-05-06T06:25:54.560Z,5.79
2019-05-06T06:28:22.820Z,5.97
2019-05-06T06:30:58.981Z,6.00
2019-05-06T06:33:25.921Z,6.17
2019-05-06T06:36:12.488Z,6.22
2019-05-06T06:38:52.596Z,6.37
2019-05-06T06:41:19.407Z,6.09
2019-05-06T06:43:48.834Z,6.12
2019-05-06T06:46:16.006Z,6.01
2019-05-06T06:48:43.123Z,6.47
2019-05-06T06:51:12.257Z,6.49
2019-05-06T06:53:39.490Z,6.67
2019-05-06T06:56:24.409Z,6.42
2019-05-06T06:59:31.901Z,6.58
2019-05-06T07:02:04.996Z,6.78
2019-05-06T07:04:36.710Z,6.71
2019-05-06T07:07:04.080Z,6.97
2019-05-06T07:09:32.372Z,6.58
2019-05-06T07:11:59.406Z,6.80
2019-05-06T07:14:26.336Z,7.14
2019-05-06T07:16:53.500Z,7.14
2019-05-06T07:19:27.684Z,7.25
2019-05-06T07:21:56.642Z,7.38
2019-05-06T07:24:23.563Z,7.47
2019-05-06T07:26:54.993Z,7.68
2019-05-06T07:29:26.003Z,7.77
2019-05-06T07:31:53.268Z,7.94
2019-05-06T07:34:19.578Z,8.20
2019-05-06T07:36:46.526Z,8.02
2019-05-06T07:39:15.297Z,8.37
2019-05-06T07:41:47.336Z,8.21
2019-05-06T07:44:33.330Z,8.18
2019-05-06T07:47:07.484Z,7.98
2019-05-06T07:49:34.409Z,8.14
2019-05-06T07:52:02.876Z,8.22
2019-05-06T07:54:29.986Z,8.41
2019-05-06T07:56:56.933Z,8.50
2019-05-06T07:59:23.856Z,8.18
2019-05-06T08:01:50.800Z,8.04
2019-05-06T08:04:17.711Z,8.18
2019-05-06T08:06:44.663Z,8.51
2019-05-06T08:09:12.919Z,8.68
2019-05-06T08:11:42.247Z,8.41
2019-05-06T08:14:09.139Z,8.56
2019-05-06T08:16:42.483Z,8.71
2019-05-06T08:19:09.592Z,8.73
2019-05-06T08:21:39.175Z,8.84
2019-05-06T08:24:06.134Z,8.94
2019-05-06T08:26:33.050Z,8.86
2019-05-06T08:28:59.984Z,9.05
2019-05-06T08:31:26.911Z,9.08
2019-05-06T08:33:53.849Z,9.08
2019-05-06T08:36:42.460Z,9.21
2019-05-06T08:39:09.307Z,9.03
2019-05-06T08:41:36.219Z,9.27
2019-05-06T08:44:03.275Z,9.37
2019-05-06T08:46:32.483Z,9.76
2019-05-06T08:48:59.052Z,9.97
2019-05-06T08:51:33.505Z,10.08
2019-05-06T08:54:07.918Z,10.23
2019-05-06T08:56:34.858Z,10.38
2019-05-06T08:59:03.158Z,10.40
2019-05-06T09:01:36.683Z,10.19
2019-05-06T09:04:09.460Z,10.34
2019-05-06T09:06:34.289Z,10.06
2019-05-06T09:09:02.360Z,10.02
2019-05-06T09:11:32.001Z,10.08
2019-05-06T09:13:58.368Z,10.42
2019-05-06T09:16:25.276Z,10.59
2019-05-06T09:18:53.327Z,10.60
2019-05-06T09:21:22.562Z,10.37
2019-05-06T09:23:49.285Z,10.60
2019-05-06T09:26:19.171Z,10.60
2019-05-06T09:28:53.109Z,10.62
2019-05-06T09:31:26.815Z,10.87
2019-05-06T09:34:07.081Z,10.66
2019-05-06T09:36:44.861Z,10.72
2019-05-06T09:39:05.151Z,10.76
2019-05-06T09:41:32.543Z,11.05
2019-05-06T09:43:59.538Z,10.88
2019-05-06T09:46:26.463Z,10.49
2019-05-06T09:49:04.076Z,10.94
2019-05-06T09:51:32.485Z,11.30
2019-05-06T09:54:08.025Z,11.35
2019-05-06T09:56:43.455Z,11.30
2019-05-06T09:59:12.785Z,11.59
2019-05-06T10:01:39.248Z,11.76
2019-05-06T10:04:06.789Z,11.91
2019-05-06T10:06:33.739Z,10.98
2019-05-06T10:09:04.806Z,10.95
2019-05-06T10:11:29.974Z,10.95
2019-05-06T10:13:56.935Z,11.00
2019-05-06T10:16:24.057Z,11.35
2019-05-06T10:18:52.384Z,11.11
2019-05-06T10:21:19.435Z,11.29
2019-05-06T10:23:46.391Z,11.65
2019-05-06T10:26:13.379Z,12.08
2019-05-06T10:28:55.957Z,11.67
2019-05-06T10:31:22.876Z,11.70
2019-05-06T10:34:08.280Z,11.63
2019-05-06T10:36:53.375Z,11.93
2019-05-06T10:39:23.762Z,12.08
2019-05-06T10:42:09.990Z,11.59
2019-05-06T10:44:47.166Z,11.67
2019-05-06T10:47:14.106Z,12.17
2019-05-06T10:49:42.054Z,12.64
2019-05-06T10:52:17.289Z,13.03
2019-05-06T10:54:44.246Z,13.10
2019-05-06T10:57:22.054Z,13.03
2019-05-06T10:59:49.380Z,12.83
2019-05-06T11:02:28.112Z,12.55
2019-05-06T11:04:56.211Z,12.18
2019-05-06T11:07:31.488Z,12.29
2019-05-06T11:09:53.247Z,12.23
2019-05-06T11:12:21.877Z,12.12
2019-05-06T11:14:48.979Z,11.63
2019-05-06T11:17:15.896Z,11.91
2019-05-06T11:19:42.899Z,12.19
2019-05-06T11:22:09.927Z,12.38
2019-05-06T11:24:36.895Z,12.75
2019-05-06T11:27:04.570Z,13.37
2019-05-06T11:29:33.872Z,13.55
2019-05-06T11:32:08.792Z,13.77
2019-05-06T11:34:47.331Z,14.45
2019-05-06T11:37:23.381Z,13.35
2019-05-06T11:39:52.656Z,13.04
2019-05-06T11:42:32.115Z,12.81
2019-05-06T11:44:48.205Z,12.94
2019-05-06T11:47:15.086Z,13.00
2019-05-06T11:49:44.124Z,12.82
2019-05-06T11:52:12.898Z,12.88
2019-05-06T11:54:42.132Z,12.73
2019-05-06T11:57:12.422Z,12.60
2019-05-06T11:59:39.353Z,12.56
2019-05-06T12:02:08.259Z,12.50
2019-05-06T12:04:36.153Z,12.90
2019-05-06T12:07:11.117Z,13.93
2019-05-06T12:09:33.080Z,13.79
2019-05-06T12:12:03.054Z,13.51
2019-05-06T12:14:29.330Z,13.68
2019-05-06T12:16:56.254Z,13.78
2019-05-06T12:19:23.177Z,14.10
2019-05-06T12:21:50.338Z,13.95
2019-05-06T12:24:17.270Z,14.01
2019-05-06T12:26:44.330Z,14.08
2019-05-06T12:29:12.732Z,13.19
2019-05-06T12:31:42.011Z,13.42
2019-05-06T12:34:11.446Z,13.22
2019-05-06T12:36:37.489Z,13.20
2019-05-06T12:39:26.322Z,13.13
2019-05-06T12:42:00.261Z,12.98
2019-05-06T12:44:27.190Z,13.14
2019-05-06T12:47:07.284Z,13.29
2019-05-06T12:49:35.979Z,13.48
2019-05-06T12:52:04.045Z,13.66
2019-05-06T12:54:33.264Z,13.83
2019-05-06T12:57:03.023Z,14.30
2019-05-06T12:59:28.982Z,14.30
2019-05-06T13:01:55.943Z,14.23
2019-05-06T13:04:44.469Z,13.89
2019-05-06T13:06:52.224Z,13.41
2019-05-06T13:09:19.409Z,13.63
2019-05-06T13:11:46.691Z,13.77
2019-05-06T13:14:13.775Z,13.54
2019-05-06T13:16:42.518Z,13.44
2019-05-06T13:19:11.950Z,13.36
2019-05-06T13:21:38.843Z,13.29
2019-05-06T13:24:06.373Z,12.99
2019-05-06T13:26:33.310Z,12.41
2019-05-06T13:29:04.960Z,12.07
2019-05-06T13:31:32.662Z,12.14
2019-05-06T13:34:10.167Z,11.96
2019-05-06T13:36:37.205Z,12.12
2019-05-06T13:39:13.939Z,11.82
2019-05-06T13:41:34.441Z,11.84
2019-05-06T13:44:10.015Z,12.06
2019-05-06T13:46:40.202Z,12.70
2019-05-06T13:49:25.966Z,13.43
2019-05-06T13:52:03.487Z,13.66
2019-05-06T13:54:34.789Z,13.73
2019-05-06T13:57:03.028Z,13.44
2019-05-06T13:59:30.837Z,13.12
2019-05-06T14:02:09.361Z,13.31
2019-05-06T14:04:36.254Z,13.11
2019-05-06T14:07:06.898Z,12.57
2019-05-06T14:09:39.292Z,12.62
2019-05-06T14:12:02.737Z,12.83
2019-05-06T14:14:32.091Z,13.03
2019-05-06T14:16:58.806Z,12.97
2019-05-06T14:19:25.707Z,12.84
2019-05-06T14:21:52.642Z,12.69
2019-05-06T14:24:22.015Z,12.51
2019-05-06T14:26:58.087Z,12.42
2019-05-06T14:29:26.726Z,11.82
2019-05-06T14:31:53.907Z,12.42
2019-05-06T14:34:22.921Z,12.82
2019-05-06T14:36:49.724Z,13.10
2019-05-06T14:39:23.674Z,13.53
2019-05-06T14:41:53.487Z,14.22
2019-05-06T14:44:22.858Z,13.31
2019-05-06T14:47:07.919Z,13.82
2019-05-06T14:49:34.832Z,14.66
2019-05-06T14:52:04.312Z,14.63
2019-05-06T14:54:56.883Z,13.85
2019-05-06T14:57:25.100Z,13.67
2019-05-06T14:59:55.677Z,12.92
2019-05-06T15:02:26.339Z,12.99
2019-05-06T15:04:53.697Z,13.16
2019-05-06T15:07:22.086Z,12.97
2019-05-06T15:09:58.371Z,12.73
2019-05-06T15:12:18.012Z,12.71
2019-05-06T15:14:44.959Z,12.65
2019-05-06T15:17:14.238Z,12.49
2019-05-06T15:19:42.926Z,12.42
2019-05-06T15:22:09.937Z,12.12
2019-05-06T15:24:37.034Z,11.71
2019-05-06T15:27:04.092Z,11.92
2019-05-06T15:29:31.139Z,11.68
2019-05-06T15:32:22.278Z,11.72
2019-05-06T15:34:57.470Z,11.38
2019-05-06T15:37:37.076Z,11.38
2019-05-06T15:40:05.509Z,11.57
2019-05-06T15:42:34.224Z,11.63
2019-05-06T15:45:01.660Z,11.73
2019-05-06T15:47:28.596Z,11.70
2019-05-06T15:49:56.242Z,11.61
2019-05-06T15:52:23.680Z,11.61
2019-05-06T15:54:52.444Z,11.28
2019-05-06T15:57:19.537Z,11.24
2019-05-06T15:59:46.489Z,10.95
2019-05-06T16:02:13.399Z,10.77
2019-05-06T16:04:40.398Z,10.78
2019-05-06T16:07:07.298Z,10.70
2019-05-06T16:09:34.236Z,10.69
2019-05-06T16:12:03.086Z,10.74
2019-05-06T16:14:34.512Z,10.76
2019-05-06T16:16:59.095Z,10.80
2019-05-06T16:19:26.049Z,10.53
2019-05-06T16:21:52.965Z,10.21
2019-05-06T16:24:24.858Z,10.32
2019-05-06T16:26:52.683Z,10.54
2019-05-06T16:29:35.098Z,10.44
2019-05-06T16:32:03.409Z,10.36
2019-05-06T16:34:32.348Z,10.22
2019-05-06T16:36:59.280Z,10.47
2019-05-06T16:39:26.242Z,10.43
2019-05-06T16:41:53.165Z,10.35
2019-05-06T16:44:20.124Z,10.23
2019-05-06T16:46:47.062Z,10.29
2019-05-06T16:49:14.277Z,10.67
2019-05-06T16:51:44.078Z,10.25
2019-05-06T16:54:12.273Z,9.70
2019-05-06T16:56:58.859Z,9.54
2019-05-06T16:59:25.819Z,9.51
2019-05-06T17:01:52.800Z,9.84
2019-05-06T17:04:28.205Z,9.95
2019-05-06T17:06:55.131Z,9.80
2019-05-06T17:09:27.153Z,9.31
2019-05-06T17:11:50.898Z,9.55
2019-05-06T17:14:17.831Z,9.43
2019-05-06T17:16:44.729Z,9.43
2019-05-06T17:19:12.745Z,9.52
2019-05-06T17:21:42.115Z,9.44
2019-05-06T17:24:08.753Z,9.30
2019-05-06T17:26:35.662Z,9.17
2019-05-06T17:29:15.167Z,9.41
2019-05-06T17:32:03.078Z,9.35
2019-05-06T17:34:35.624Z,9.38
2019-05-06T17:37:24.706Z,9.29
2019-05-06T17:40:06.343Z,9.41
2019-05-06T17:42:22.559Z,9.45
2019-05-06T17:44:49.366Z,9.43
2019-05-06T17:47:27.652Z,9.31
2019-05-06T17:49:54.637Z,9.41
2019-05-06T17:52:22.423Z,9.43
2019-05-06T17:54:49.427Z,9.39
2019-05-06T17:57:16.348Z,9.44
2019-05-06T17:59:43.317Z,9.31
2019-05-06T18:02:14.786Z,9.28
2019-05-06T18:04:43.064Z,9.33
2019-05-06T18:07:12.101Z,9.32
2019-05-06T18:09:39.139Z,9.49
2019-05-06T18:12:06.092Z,9.47
2019-05-06T18:14:33.457Z,9.55
2019-05-06T18:17:00.659Z,9.28
2019-05-06T18:19:27.603Z,9.26
2019-05-06T18:21:54.581Z,9.25
2019-05-06T18:24:23.094Z,9.25
2019-05-06T18:26:50.197Z,9.18
2019-05-06T18:29:17.168Z,9.25
2019-05-06T18:31:44.114Z,8.82
2019-05-06T18:34:12.909Z,8.83
2019-05-06T18:36:39.892Z,8.82
2019-05-06T18:39:07.230Z,8.79
2019-05-06T18:41:35.001Z,8.85
2019-05-06T18:44:01.915Z,8.83
2019-05-06T18:46:28.883Z,8.78
2019-05-06T18:48:55.821Z,8.86
2019-05-06T18:51:22.873Z,8.68
2019-05-06T18:53:52.185Z,8.92
2019-05-06T18:56:18.775Z,9.13
2019-05-06T18:58:45.696Z,8.92
2019-05-06T19:01:13.298Z,8.86
2019-05-06T19:03:47.229Z,8.93
2019-05-06T19:06:14.238Z,8.79
2019-05-06T19:08:46.658Z,8.82
2019-05-06T19:11:14.602Z,8.87
2019-05-06T19:13:41.606Z,8.85
2019-05-06T19:16:08.556Z,9.10
2019-05-06T19:18:35.558Z,9.12
2019-05-06T19:21:02.759Z,9.05
2019-05-06T19:23:31.909Z,9.01
2019-05-06T19:25:58.849Z,8.93
2019-05-06T19:28:25.783Z,8.91
2019-05-06T19:30:54.158Z,8.95
2019-05-06T19:33:21.368Z,8.93
2019-05-06T19:35:48.347Z,9.01
2019-05-06T19:38:15.463Z,8.90
2019-05-06T19:40:42.402Z,8.97
2019-05-06T19:43:09.323Z,9.09
2019-05-06T19:45:36.335Z,9.03
2019-05-06T19:48:03.292Z,8.63
2019-05-06T19:50:30.230Z,8.49
2019-05-06T19:52:57.211Z,8.11
2019-05-06T19:55:24.211Z,8.01
2019-05-06T19:57:52.616Z,7.79
2019-05-06T20:00:20.223Z,7.49
2019-05-06T20:02:47.190Z,7.34
2019-05-06T20:05:22.807Z,7.48
2019-05-06T20:08:03.015Z,7.49
2019-05-06T20:10:38.307Z,7.45
2019-05-06T20:13:05.592Z,7.31
2019-05-06T20:15:39.523Z,7.29
2019-05-06T20:18:07.957Z,7.23
2019-05-06T20:20:35.341Z,7.22
2019-05-06T20:23:02.836Z,7.06
2019-05-06T20:25:29.818Z,6.94
2019-05-06T20:27:56.803Z,6.97
2019-05-06T20:30:23.710Z,7.03
2019-05-06T20:32:52.149Z,7.08
2019-05-06T20:35:19.517Z,7.00
2019-05-06T20:37:46.467Z,7.07
2019-05-06T20:40:14.716Z,7.07
2019-05-06T20:42:42.630Z,7.01
2019-05-06T20:45:09.961Z,7.05
2019-05-06T20:47:36.906Z,7.24
2019-05-06T20:50:04.412Z,7.42
2019-05-06T20:52:33.153Z,7.46
2019-05-06T20:55:00.263Z,7.55
2019-05-06T20:57:27.277Z,7.22
2019-05-06T20:59:54.233Z,7.08
2019-05-06T21:02:25.589Z,7.39
2019-05-06T21:04:50.029Z,7.48
2019-05-06T21:07:16.986Z,7.49
2019-05-06T21:09:43.920Z,7.48
2019-05-06T21:12:10.887Z,7.54
2019-05-06T21:14:37.796Z,7.54
2019-05-06T21:17:04.779Z,7.43
2019-05-06T21:19:33.117Z,7.33
2019-05-06T21:22:02.308Z,7.30
2019-05-06T21:24:29.183Z,7.29
2019-05-06T21:26:56.214Z,7.43
2019-05-06T21:29:23.327Z,7.32
2019-05-06T21:31:50.344Z,7.34
2019-05-06T21:34:17.319Z,7.39
2019-05-06T21:36:44.276Z,7.43
2019-05-06T21:39:12.993Z,7.48
2019-05-06T21:41:42.461Z,7.50
2019-05-06T21:44:08.980Z,7.50
2019-05-06T21:46:35.947Z,7.45
2019-05-06T21:49:03.046Z,7.43
2019-05-06T21:51:30.204Z,7.47
2019-05-06T21:53:57.157Z,7.51
2019-05-06T21:56:24.118Z,7.45
2019-05-06T21:58:52.428Z,7.37
2019-05-06T22:01:22.035Z,7.36
2019-05-06T22:03:48.823Z,7.50
2019-05-06T22:06:15.735Z,7.43
2019-05-06T22:08:42.702Z,7.36
2019-05-06T22:11:09.754Z,7.31
2019-05-06T22:13:36.714Z,7.37
2019-05-06T22:16:04.744Z,7.37
2019-05-06T22:18:32.080Z,7.14
2019-05-06T22:21:22.505Z,7.18
2019-05-06T22:24:04.286Z,7.26
2019-05-06T22:26:29.824Z,7.32
2019-05-06T22:28:56.757Z,7.26
2019-05-06T22:31:24.652Z,7.35
2019-05-06T22:33:51.778Z,7.14
2019-05-06T22:36:18.700Z,7.20
2019-05-06T22:38:45.679Z,7.07
2019-05-06T22:41:12.722Z,7.04
2019-05-06T22:43:39.767Z,7.22
2019-05-06T22:46:07.116Z,7.14
2019-05-06T22:48:34.065Z,7.21
2019-05-06T22:51:02.689Z,7.19
2019-05-06T22:53:29.732Z,7.28
2019-05-06T22:55:58.772Z,7.16
2019-05-06T22:58:25.730Z,7.10
2019-05-06T23:00:53.857Z,7.02
2019-05-06T23:03:22.705Z,7.08
2019-05-06T23:05:49.712Z,6.66
2019-05-06T23:08:16.653Z,6.70
2019-05-06T23:10:43.600Z,6.87
2019-05-06T23:13:12.466Z,6.99
2019-05-06T23:15:39.389Z,7.05
2019-05-06T23:18:06.335Z,7.08
2019-05-06T23:20:33.272Z,6.91
2019-05-06T23:23:00.178Z,6.86
2019-05-06T23:25:27.126Z,6.88
2019-05-06T23:27:54.206Z,6.89
2019-05-06T23:30:23.447Z,6.96
2019-05-06T23:32:49.975Z,6.99
2019-05-06T23:35:16.925Z,7.00
2019-05-06T23:38:22.906Z,6.97
2019-05-06T23:41:26.327Z,6.91
2019-05-06T23:44:43.084Z,7.00
2019-05-06T23:47:36.198Z,7.09
2019-05-06T23:50:39.778Z,7.03
2019-05-06T23:53:43.276Z,7.01
2019-05-06T23:56:43.364Z,6.92
2019-05-06T23:59:12.495Z,6.97
